createdAt,value
2019-04-10T00:01:12.300Z,50.30
2019-04-10T00:03:43.968Z,50.21
2019-04-10T00:06:18.075Z,50.39
2019-04-10T00:08:49.012Z,50.13
2019-04-10T00:11:20.607Z,49.60
2019-04-10T00:13:51.348Z,50.23
2019-04-10T00:16:22.439Z,49.86
2019-04-10T00:18:54.005Z,48.97
2019-04-10T00:21:25.686Z,49.64
2019-04-10T00:23:56.253Z,49.75
2019-04-10T00:26:27.779Z,49.84
2019-04-10T00:28:58.480Z,49.67
2019-04-10T00:31:29.823Z,49.82
2019-04-10T00:34:01.081Z,49.52
2019-04-10T00:36:31.757Z,49.45
2019-04-10T00:39:02.398Z,49.48
2019-04-10T00:41:48.363Z,49.52
2019-04-10T00:44:19.457Z,50.19
2019-04-10T00:46:50.669Z,50.61
2019-04-10T00:49:22.189Z,50.32
2019-04-10T00:51:52.799Z,49.92
2019-04-10T00:54:23.695Z,50.01
2019-04-10T00:56:54.424Z,49.99
2019-04-10T00:59:24.994Z,50.02
2019-04-10T01:01:56.536Z,50.52
2019-04-10T01:04:28.618Z,50.18
2019-04-10T01:07:00.178Z,50.82
2019-04-10T01:09:31.903Z,51.58
2019-04-10T01:12:03.918Z,51.04
2019-04-10T01:14:34.498Z,50.25
2019-04-10T01:17:06.149Z,49.98
2019-04-10T01:19:37.065Z,51.74
2019-04-10T01:22:08.616Z,51.94
2019-04-10T01:24:41.727Z,51.63
2019-04-10T01:27:12.394Z,51.59
2019-04-10T01:29:43.922Z,51.63
2019-04-10T01:32:15.414Z,51.47
2019-04-10T01:34:46.036Z,51.32
2019-04-10T01:37:16.707Z,51.03
2019-04-10T01:39:48.633Z,51.23
2019-04-10T01:42:19.178Z,50.82
2019-04-10T01:44:49.755Z,50.21
2019-04-10T01:47:21.303Z,50.19
2019-04-10T01:49:51.871Z,49.90
2019-04-10T01:52:22.705Z,49.97
2019-04-10T01:54:55.512Z,50.25
2019-04-10T01:57:28.430Z,49.97
2019-04-10T01:59:59.047Z,49.71
2019-04-10T02:02:31.685Z,50.01
2019-04-10T02:05:02.264Z,49.70
2019-04-10T02:07:34.168Z,50.12
2019-04-10T02:10:07.919Z,50.42
2019-04-10T02:12:38.955Z,51.00
2019-04-10T02:15:14.153Z,50.39
2019-04-10T02:17:46.401Z,50.43
2019-04-10T02:20:17.338Z,50.00
2019-04-10T02:22:48.071Z,49.77
2019-04-10T02:25:19.854Z,49.53
2019-04-10T02:27:50.888Z,49.93
2019-04-10T02:30:21.998Z,50.41
2019-04-10T02:32:54.576Z,50.80
2019-04-10T02:35:25.262Z,49.78
2019-04-10T02:37:56.638Z,50.14
2019-04-10T02:40:28.904Z,50.07
2019-04-10T02:43:00.795Z,49.86
2019-04-10T02:45:32.548Z,49.76
2019-04-10T02:48:04.007Z,50.00
2019-04-10T02:50:35.538Z,49.77
2019-04-10T02:53:07.826Z,50.34
2019-04-10T02:55:38.765Z,50.43
2019-04-10T02:58:09.717Z,50.70
2019-04-10T03:00:42.034Z,50.82
2019-04-10T03:03:13.861Z,50.38
2019-04-10T03:05:44.845Z,50.71
2019-04-10T03:08:17.305Z,50.28
2019-04-10T03:10:54.354Z,51.25
2019-04-10T03:13:21.852Z,50.83
2019-04-10T03:15:53.503Z,51.54
2019-04-10T03:18:25.108Z,52.38
2019-04-10T03:20:56.430Z,52.38
2019-04-10T03:23:27.059Z,53.11
2019-04-10T03:25:57.817Z,51.88
2019-04-10T03:28:29.207Z,52.12
2019-04-10T03:31:02.258Z,51.72
2019-04-10T03:33:36.015Z,51.68
2019-04-10T03:36:05.933Z,51.21
2019-04-10T03:38:49.421Z,51.61
2019-04-10T03:41:08.800Z,51.85
2019-04-10T03:43:41.606Z,51.89
2019-04-10T03:46:13.425Z,51.71
2019-04-10T03:48:45.141Z,51.93
2019-04-10T03:51:16.534Z,51.77
2019-04-10T03:53:47.215Z,51.64
2019-04-10T03:56:18.052Z,52.31
2019-04-10T03:58:49.550Z,52.15
2019-04-10T04:01:20.252Z,52.55
2019-04-10T04:03:51.185Z,53.38
2019-04-10T04:06:21.824Z,53.44
2019-04-10T04:09:04.297Z,54.19
2019-04-10T04:11:24.628Z,53.35
2019-04-10T04:13:55.549Z,53.15
2019-04-10T04:16:26.884Z,53.95
2019-04-10T04:18:57.695Z,54.22
2019-04-10T04:21:28.254Z,53.64
2019-04-10T04:23:59.878Z,53.53
2019-04-10T04:26:31.598Z,53.12
2019-04-10T04:29:02.238Z,52.95
2019-04-10T04:31:33.259Z,52.38
2019-04-10T04:34:04.054Z,52.06
2019-04-10T04:36:35.729Z,51.89
2019-04-10T04:39:17.866Z,51.61
2019-04-10T04:41:40.596Z,51.48
2019-04-10T04:44:12.306Z,51.59
2019-04-10T04:46:43.007Z,51.36
2019-04-10T04:49:13.738Z,51.08
2019-04-10T04:51:44.271Z,50.64
2019-04-10T04:54:15.100Z,52.13
2019-04-10T04:56:46.360Z,52.56
2019-04-10T04:59:18.351Z,52.49
2019-04-10T05:01:49.215Z,52.02
2019-04-10T05:04:22.893Z,51.51
2019-04-10T05:06:55.617Z,52.46
2019-04-10T05:09:33.733Z,52.43
2019-04-10T05:11:58.773Z,52.40
2019-04-10T05:14:31.494Z,52.49
2019-04-10T05:17:01.816Z,52.52
2019-04-10T05:19:32.459Z,53.31
2019-04-10T05:22:03.025Z,53.03
2019-04-10T05:24:34.575Z,52.87
2019-04-10T05:27:05.742Z,53.18
2019-04-10T05:29:37.361Z,53.49
2019-04-10T05:32:07.918Z,53.76
2019-04-10T05:34:38.553Z,52.69
2019-04-10T05:37:09.516Z,48.00
2019-04-10T05:39:46.099Z,45.84
2019-04-10T05:42:12.772Z,44.65
2019-04-10T05:44:44.375Z,43.95
2019-04-10T05:47:15.007Z,42.98
2019-04-10T05:49:45.617Z,43.89
2019-04-10T05:52:18.166Z,44.50
2019-04-10T05:54:49.370Z,44.65
2019-04-10T05:57:20.229Z,44.58
2019-04-10T05:59:50.813Z,44.61
2019-04-10T06:02:21.420Z,43.06
2019-04-10T06:04:52.065Z,41.93
2019-04-10T06:07:23.164Z,43.39
2019-04-10T06:09:59.582Z,42.75
2019-04-10T06:12:26.537Z,42.30
2019-04-10T06:14:58.835Z,42.54
2019-04-10T06:17:30.158Z,41.78
2019-04-10T06:20:00.976Z,42.03
2019-04-10T06:22:31.534Z,42.41
2019-04-10T06:25:03.971Z,42.61
2019-04-10T06:27:34.717Z,44.51
2019-04-10T06:30:07.894Z,42.77
2019-04-10T06:32:39.628Z,41.90
2019-04-10T06:35:11.783Z,39.01
2019-04-10T06:37:42.346Z,35.95
2019-04-10T06:40:19.127Z,37.46
2019-04-10T06:42:50.775Z,34.96
2019-04-10T06:45:18.014Z,33.30
2019-04-10T06:47:48.726Z,35.99
2019-04-10T06:50:19.263Z,36.57
2019-04-10T06:52:49.837Z,36.40
2019-04-10T06:55:21.634Z,37.35
2019-04-10T06:57:57.266Z,36.27
2019-04-10T07:00:25.102Z,37.30
2019-04-10T07:02:56.650Z,36.02
2019-04-10T07:05:37.024Z,34.53
2019-04-10T07:08:09.139Z,31.16
2019-04-10T07:10:44.772Z,29.95
2019-04-10T07:13:07.723Z,30.05
2019-04-10T07:15:37.787Z,31.81
2019-04-10T07:18:14.471Z,29.62
2019-04-10T07:20:42.155Z,28.47
2019-04-10T07:23:19.202Z,27.34
2019-04-10T07:25:48.336Z,27.51
2019-04-10T07:28:21.521Z,27.01
2019-04-10T07:30:56.851Z,26.89
2019-04-10T07:33:24.650Z,26.94
2019-04-10T07:35:56.617Z,25.81
2019-04-10T07:38:28.810Z,26.49
2019-04-10T07:40:59.905Z,26.60
2019-04-10T07:43:30.758Z,26.65
2019-04-10T07:46:01.782Z,26.02
2019-04-10T07:48:33.544Z,26.79
2019-04-10T07:51:04.905Z,26.76
2019-04-10T07:53:35.865Z,26.79
2019-04-10T07:56:12.837Z,26.44
2019-04-10T07:58:40.049Z,26.12
2019-04-10T08:01:11.815Z,28.46
2019-04-10T08:03:43.755Z,28.92
2019-04-10T08:06:15.402Z,27.17
2019-04-10T08:08:46.866Z,25.31
2019-04-10T08:11:17.724Z,27.50
2019-04-10T08:13:49.584Z,26.92
2019-04-10T08:16:21.058Z,26.82
2019-04-10T08:18:52.214Z,27.42
2019-04-10T08:21:23.872Z,27.13
2019-04-10T08:23:54.931Z,28.21
2019-04-10T08:26:25.927Z,27.21
2019-04-10T08:28:57.219Z,27.29
2019-04-10T08:31:29.055Z,26.82
2019-04-10T08:34:01.287Z,27.54
2019-04-10T08:36:31.958Z,27.04
2019-04-10T08:39:02.662Z,28.31
2019-04-10T08:41:35.169Z,29.46
2019-04-10T08:44:06.466Z,29.14
2019-04-10T08:46:38.559Z,29.80
2019-04-10T08:49:09.523Z,29.58
2019-04-10T08:51:41.540Z,28.76
2019-04-10T08:54:12.304Z,30.16
2019-04-10T08:56:43.071Z,30.54
2019-04-10T08:59:14.022Z,29.54
2019-04-10T09:01:45.285Z,29.82
2019-04-10T09:04:16.192Z,30.27
2019-04-10T09:06:47.361Z,29.70
2019-04-10T09:09:18.585Z,30.42
2019-04-10T09:11:49.447Z,30.49
2019-04-10T09:14:21.068Z,31.04
2019-04-10T09:16:51.729Z,30.35
2019-04-10T09:19:22.914Z,30.41
2019-04-10T09:21:55.591Z,30.46
2019-04-10T09:24:26.582Z,30.83
2019-04-10T09:26:57.944Z,30.00
2019-04-10T09:29:32.012Z,31.11
2019-04-10T09:32:04.471Z,30.62
2019-04-10T09:34:35.976Z,30.02
2019-04-10T09:37:08.105Z,27.68
2019-04-10T09:39:41.265Z,29.60
2019-04-10T09:42:12.513Z,30.04
2019-04-10T09:44:44.336Z,30.31
2019-04-10T09:47:16.245Z,29.93
2019-04-10T09:49:47.832Z,29.59
2019-04-10T09:52:21.971Z,29.38
2019-04-10T09:54:53.817Z,29.65
2019-04-10T09:57:24.605Z,29.50
2019-04-10T09:59:55.469Z,30.83
2019-04-10T10:02:27.442Z,30.61
2019-04-10T10:04:58.183Z,30.36
2019-04-10T10:07:29.045Z,30.50
2019-04-10T10:10:01.346Z,30.83
2019-04-10T10:12:35.095Z,30.70
2019-04-10T10:15:07.883Z,31.55
2019-04-10T10:17:39.258Z,30.74
2019-04-10T10:20:11.474Z,31.05
2019-04-10T10:22:42.152Z,30.83
2019-04-10T10:25:13.181Z,31.37
2019-04-10T10:27:45.370Z,31.82
2019-04-10T10:30:17.645Z,32.02
2019-04-10T10:32:48.955Z,32.45
2019-04-10T10:35:20.664Z,31.75
2019-04-10T10:37:52.339Z,32.20
2019-04-10T10:40:24.022Z,32.32
2019-04-10T10:42:56.072Z,33.62
2019-04-10T10:45:27.016Z,33.14
2019-04-10T10:47:57.558Z,32.94
2019-04-10T10:50:29.012Z,32.21
2019-04-10T10:52:59.810Z,32.89
2019-04-10T10:55:30.415Z,33.25
2019-04-10T10:58:01.679Z,32.84
2019-04-10T11:00:33.425Z,33.91
2019-04-10T11:03:04.166Z,33.46
2019-04-10T11:05:35.662Z,32.84
2019-04-10T11:08:06.894Z,32.97
2019-04-10T11:10:38.929Z,33.23
2019-04-10T11:13:10.429Z,32.77
2019-04-10T11:15:45.190Z,32.90
2019-04-10T11:18:13.887Z,33.48
2019-04-10T11:20:44.447Z,34.28
2019-04-10T11:23:15.002Z,33.94
2019-04-10T11:25:47.994Z,33.40
2019-04-10T11:28:18.859Z,33.76
2019-04-10T11:30:51.026Z,34.07
2019-04-10T11:33:22.360Z,34.13
2019-04-10T11:35:53.422Z,33.16
2019-04-10T11:38:25.850Z,32.31
2019-04-10T11:40:59.487Z,32.82
2019-04-10T11:43:30.403Z,33.16
2019-04-10T11:46:02.722Z,34.19
2019-04-10T11:48:34.118Z,33.83
2019-04-10T11:51:06.692Z,33.08
2019-04-10T11:53:41.743Z,32.98
2019-04-10T11:56:11.473Z,32.99
2019-04-10T11:58:49.450Z,32.80
2019-04-10T12:01:15.013Z,32.65
2019-04-10T12:03:50.428Z,32.95
2019-04-10T12:06:20.770Z,33.70
2019-04-10T12:09:13.233Z,34.16
2019-04-10T12:11:23.110Z,34.16
2019-04-10T12:13:54.594Z,33.35
2019-04-10T12:16:25.268Z,33.44
2019-04-10T12:18:56.401Z,33.11
2019-04-10T12:21:27.946Z,33.71
2019-04-10T12:23:58.942Z,33.54
2019-04-10T12:26:29.753Z,34.14
2019-04-10T12:29:00.401Z,33.83
2019-04-10T12:31:30.937Z,33.90
2019-04-10T12:34:01.582Z,34.11
2019-04-10T12:36:32.147Z,33.67
2019-04-10T12:39:04.411Z,32.76
2019-04-10T12:41:36.035Z,32.29
2019-04-10T12:44:07.469Z,32.83
2019-04-10T12:46:39.373Z,32.79
2019-04-10T12:49:10.065Z,32.84
2019-04-10T12:51:42.249Z,33.18
2019-04-10T12:54:12.831Z,33.49
2019-04-10T12:56:43.437Z,33.92
2019-04-10T12:59:15.144Z,33.06
2019-04-10T13:01:47.029Z,32.77
2019-04-10T13:04:18.000Z,33.06
2019-04-10T13:06:51.481Z,33.77
2019-04-10T13:09:22.062Z,33.24
2019-04-10T13:11:53.094Z,32.56
2019-04-10T13:14:24.431Z,32.40
2019-04-10T13:16:55.118Z,33.05
2019-04-10T13:19:27.054Z,31.76
2019-04-10T13:21:57.936Z,32.65
2019-04-10T13:24:28.456Z,32.37
2019-04-10T13:26:59.139Z,32.06
2019-04-10T13:29:32.153Z,31.39
2019-04-10T13:32:03.493Z,32.08
2019-04-10T13:34:35.383Z,31.25
2019-04-10T13:37:06.252Z,31.83
2019-04-10T13:39:37.128Z,32.82
2019-04-10T13:42:07.893Z,32.86
2019-04-10T13:44:40.434Z,32.99
2019-04-10T13:47:12.042Z,32.93
2019-04-10T13:49:44.267Z,33.05
2019-04-10T13:52:14.820Z,33.13
2019-04-10T13:54:45.572Z,31.87
2019-04-10T13:57:16.087Z,32.87
2019-04-10T13:59:46.959Z,33.88
2019-04-10T14:02:19.483Z,33.69
2019-04-10T14:04:51.730Z,34.36
2019-04-10T14:07:22.389Z,34.60
2019-04-10T14:09:52.972Z,34.61
2019-04-10T14:12:23.624Z,34.71
2019-04-10T14:14:55.145Z,35.05
2019-04-10T14:17:26.097Z,35.08
2019-04-10T14:19:58.866Z,34.86
2019-04-10T14:22:29.543Z,34.71
2019-04-10T14:25:00.976Z,34.95
2019-04-10T14:27:32.095Z,34.41
2019-04-10T14:30:09.129Z,32.82
2019-04-10T14:32:41.712Z,32.48
2019-04-10T14:35:12.319Z,32.29
2019-04-10T14:37:43.412Z,32.70
2019-04-10T14:40:15.894Z,32.61
2019-04-10T14:42:47.237Z,32.50
2019-04-10T14:45:18.105Z,31.82
2019-04-10T14:47:49.817Z,31.91
2019-04-10T14:50:20.611Z,33.12
2019-04-10T14:52:51.641Z,32.12
2019-04-10T14:55:22.291Z,33.11
2019-04-10T14:57:53.167Z,33.38
2019-04-10T15:00:25.465Z,32.71
2019-04-10T15:02:56.047Z,33.80
2019-04-10T15:05:27.897Z,33.61
2019-04-10T15:07:59.436Z,33.19
2019-04-10T15:10:30.113Z,33.29
2019-04-10T15:13:09.353Z,33.47
2019-04-10T15:15:34.541Z,33.47
2019-04-10T15:18:06.571Z,34.12
2019-04-10T15:20:37.630Z,34.63
2019-04-10T15:23:08.419Z,34.46
2019-04-10T15:25:39.522Z,35.11
2019-04-10T15:28:10.489Z,34.65
2019-04-10T15:30:41.056Z,34.56
2019-04-10T15:33:12.126Z,35.69
2019-04-10T15:35:42.782Z,35.40
2019-04-10T15:38:13.759Z,35.39
2019-04-10T15:40:44.563Z,35.41
2019-04-10T15:43:15.140Z,35.55
2019-04-10T15:45:46.307Z,35.60
2019-04-10T15:48:17.172Z,35.33
2019-04-10T15:50:49.831Z,35.54
2019-04-10T15:53:22.371Z,35.53
2019-04-10T15:55:53.731Z,34.64
2019-04-10T15:58:25.558Z,35.04
2019-04-10T16:00:57.208Z,34.84
2019-04-10T16:03:28.644Z,36.00
2019-04-10T16:05:59.880Z,36.18
2019-04-10T16:08:32.494Z,36.21
2019-04-10T16:11:06.120Z,36.37
2019-04-10T16:13:38.911Z,36.41
2019-04-10T16:16:27.887Z,36.75
2019-04-10T16:19:04.225Z,36.87
2019-04-10T16:21:35.848Z,36.57
2019-04-10T16:24:17.817Z,36.76
2019-04-10T16:26:49.639Z,37.12
2019-04-10T16:29:22.301Z,36.65
2019-04-10T16:31:54.538Z,36.90
2019-04-10T16:34:25.288Z,36.90
2019-04-10T16:36:56.231Z,37.13
2019-04-10T16:39:27.832Z,37.65
2019-04-10T16:41:59.841Z,37.75
2019-04-10T16:44:31.003Z,38.64
2019-04-10T16:47:01.642Z,39.00
2019-04-10T16:49:35.057Z,38.40
2019-04-10T16:52:07.087Z,38.50
2019-04-10T16:54:38.663Z,37.69
2019-04-10T16:57:10.049Z,38.50
2019-04-10T16:59:41.645Z,38.77
2019-04-10T17:02:12.513Z,38.76
2019-04-10T17:04:43.781Z,39.28
2019-04-10T17:07:14.778Z,39.24
2019-04-10T17:09:45.562Z,39.29
2019-04-10T17:12:17.581Z,39.32
2019-04-10T17:14:48.557Z,38.55
2019-04-10T17:17:20.161Z,38.87
2019-04-10T17:19:55.515Z,38.11
2019-04-10T17:22:35.747Z,38.48
2019-04-10T17:24:57.878Z,38.35
2019-04-10T17:27:29.818Z,37.99
2019-04-10T17:30:01.433Z,38.23
2019-04-10T17:32:32.498Z,37.46
2019-04-10T17:35:03.839Z,38.36
2019-04-10T17:37:35.880Z,38.34
2019-04-10T17:40:25.410Z,38.83
2019-04-10T17:42:44.356Z,39.05
2019-04-10T17:45:15.507Z,40.03
2019-04-10T17:47:47.679Z,40.01
2019-04-10T17:50:18.528Z,40.43
2019-04-10T17:52:51.164Z,40.79
2019-04-10T17:55:23.228Z,40.58
2019-04-10T17:57:56.641Z,40.85
2019-04-10T18:00:36.001Z,41.04
2019-04-10T18:03:07.619Z,41.09
2019-04-10T18:05:39.575Z,42.13
2019-04-10T18:08:12.474Z,42.07
2019-04-10T18:10:49.521Z,42.04
2019-04-10T18:13:19.014Z,42.65
2019-04-10T18:15:50.490Z,42.09
2019-04-10T18:18:21.955Z,42.30
2019-04-10T18:20:56.094Z,42.89
2019-04-10T18:23:28.733Z,41.98
2019-04-10T18:26:00.667Z,42.54
2019-04-10T18:28:33.999Z,41.79
2019-04-10T18:31:05.405Z,41.85
2019-04-10T18:33:38.506Z,42.55
2019-04-10T18:36:11.588Z,41.58
2019-04-10T18:38:43.787Z,41.89
2019-04-10T18:41:17.845Z,41.10
2019-04-10T18:43:50.862Z,41.66
2019-04-10T18:46:23.941Z,41.94
2019-04-10T18:51:25.812Z,41.48
2019-04-10T18:53:57.685Z,41.44
2019-04-10T18:56:31.363Z,40.98
2019-04-10T18:59:12.384Z,41.30
2019-04-10T19:01:51.551Z,41.34
2019-04-10T19:04:41.172Z,41.34
2019-04-10T19:07:13.308Z,41.66
2019-04-10T19:09:44.601Z,41.22
2019-04-10T19:12:18.786Z,41.39
2019-04-10T19:14:50.811Z,41.56
2019-04-10T19:17:22.460Z,41.27
2019-04-10T19:19:53.741Z,41.54
2019-04-10T19:22:24.406Z,42.15
2019-04-10T19:24:56.874Z,41.54
2019-04-10T19:27:28.447Z,42.03
2019-04-10T19:29:59.616Z,41.95
2019-04-10T19:32:33.275Z,41.50
2019-04-10T19:35:08.179Z,42.01
2019-04-10T19:37:41.312Z,41.88
2019-04-10T19:40:13.851Z,42.30
2019-04-10T19:42:46.954Z,41.95
2019-04-10T19:45:25.882Z,42.11
2019-04-10T19:48:01.134Z,41.88
2019-04-10T19:50:38.332Z,41.85
2019-04-10T19:53:09.108Z,41.71
2019-04-10T19:55:40.076Z,41.81
2019-04-10T19:58:12.518Z,41.82
2019-04-10T20:00:44.772Z,42.23
2019-04-10T20:03:15.539Z,42.43
2019-04-10T20:05:47.806Z,42.40
2019-04-10T20:08:19.809Z,42.62
2019-04-10T20:10:52.016Z,42.80
2019-04-10T20:13:23.060Z,42.45
2019-04-10T20:15:55.082Z,42.86
2019-04-10T20:18:28.613Z,43.31
2019-04-10T20:20:59.728Z,43.50
2019-04-10T20:23:30.564Z,43.20
2019-04-10T20:26:01.355Z,43.31
2019-04-10T20:28:33.797Z,43.24
2019-04-10T20:31:07.019Z,43.21
2019-04-10T20:33:38.782Z,43.35
2019-04-10T20:36:13.022Z,43.27
2019-04-10T20:38:45.029Z,43.06
2019-04-10T20:41:16.284Z,43.46
2019-04-10T20:43:47.363Z,43.26
2019-04-10T20:46:18.348Z,43.53
2019-04-10T20:48:49.116Z,43.08
2019-04-10T20:51:20.722Z,43.40
2019-04-10T20:53:52.607Z,43.42
2019-04-10T20:56:24.342Z,43.23
2019-04-10T20:58:55.164Z,42.80
2019-04-10T21:01:26.625Z,42.94
2019-04-10T21:03:57.462Z,43.59
2019-04-10T21:06:29.760Z,43.58
2019-04-10T21:09:01.372Z,43.82
2019-04-10T21:11:35.600Z,43.12
2019-04-10T21:14:07.199Z,43.42
2019-04-10T21:16:38.625Z,43.74
2019-04-10T21:19:09.586Z,43.75
2019-04-10T21:21:41.871Z,43.88
2019-04-10T21:24:13.358Z,44.24
2019-04-10T21:26:44.439Z,43.88
2019-04-10T21:29:19.582Z,43.97
2019-04-10T21:31:52.568Z,44.27
2019-04-10T21:34:26.362Z,44.31
2019-04-10T21:36:57.908Z,44.29
2019-04-10T21:39:29.652Z,44.14
2019-04-10T21:42:12.294Z,44.32
2019-04-10T21:44:33.416Z,44.11
2019-04-10T21:47:04.093Z,44.52
2019-04-10T21:49:35.921Z,44.64
2019-04-10T21:52:07.794Z,44.90
2019-04-10T21:54:48.586Z,44.69
2019-04-10T21:57:10.773Z,44.52
2019-04-10T21:59:41.353Z,44.52
2019-04-10T22:02:13.145Z,44.74
2019-04-10T22:04:45.470Z,45.51
2019-04-10T22:07:34.290Z,44.49
2019-04-10T22:10:24.287Z,44.68
2019-04-10T22:12:55.459Z,45.01
2019-04-10T22:15:28.782Z,44.90
2019-04-10T22:18:00.772Z,45.35
2019-04-10T22:20:33.810Z,45.38
2019-04-10T22:23:05.497Z,45.31
2019-04-10T22:25:37.297Z,45.26
2019-04-10T22:28:08.377Z,45.10
2019-04-10T22:30:38.902Z,45.31
2019-04-10T22:33:09.681Z,45.65
2019-04-10T22:35:40.251Z,45.75
2019-04-10T22:38:11.180Z,45.58
2019-04-10T22:40:42.068Z,45.45
2019-04-10T22:43:13.801Z,44.89
2019-04-10T22:45:46.523Z,44.92
2019-04-10T22:48:17.160Z,44.89
2019-04-10T22:50:47.801Z,44.53
2019-04-10T22:53:19.353Z,45.06
2019-04-10T22:55:50.653Z,45.18
2019-04-10T22:58:21.283Z,44.96
2019-04-10T23:00:51.841Z,44.87
2019-04-10T23:03:22.539Z,45.67
2019-04-10T23:05:53.167Z,45.52
2019-04-10T23:08:23.836Z,45.80
2019-04-10T23:10:54.663Z,45.64
2019-04-10T23:13:25.875Z,45.71
2019-04-10T23:15:57.772Z,45.10
2019-04-10T23:18:29.733Z,45.24
2019-04-10T23:21:00.625Z,45.26
2019-04-10T23:23:31.222Z,45.55
2019-04-10T23:26:01.812Z,45.56
2019-04-10T23:28:33.522Z,46.08
2019-04-10T23:31:05.595Z,45.83
2019-04-10T23:33:36.507Z,45.16
2019-04-10T23:36:08.325Z,44.81
2019-04-10T23:38:39.608Z,44.23
2019-04-10T23:41:10.251Z,45.03
2019-04-10T23:43:41.917Z,45.25
2019-04-10T23:46:12.813Z,46.34
2019-04-10T23:48:44.611Z,46.14
2019-04-10T23:51:16.240Z,46.34
2019-04-10T23:53:46.950Z,46.62
2019-04-10T23:56:17.810Z,46.97
2019-04-10T23:58:49.167Z,46.53
